createdAt,value
2019-06-10T00:02:21.262Z,27.6
2019-06-10T00:07:32.604Z,27.6
2019-06-10T00:12:43.886Z,27.6
2019-06-10T00:18:34.967Z,27.6
2019-06-10T00:23:55.942Z,27.6
2019-06-10T00:29:11.899Z,27.7
2019-06-10T00:34:23.299Z,27.7
2019-06-10T00:39:34.859Z,27.7
2019-06-10T00:44:46.147Z,27.7
2019-06-10T00:49:57.709Z,27.7
2019-06-10T00:55:13.823Z,27.7
2019-06-10T01:00:26.408Z,27.7
2019-06-10T01:05:37.427Z,27.7
2019-06-10T01:10:52.473Z,27.7
2019-06-10T01:16:03.654Z,27.7
2019-06-10T01:21:15.761Z,27.7
2019-06-10T01:26:26.768Z,27.7
2019-06-10T01:31:38.273Z,27.7
2019-06-10T01:36:51.526Z,27.7
2019-06-10T01:42:03.114Z,27.7
2019-06-10T01:47:17.396Z,27.6
2019-06-10T01:52:28.258Z,27.5
2019-06-10T01:57:41.692Z,27.6
2019-06-10T02:02:53.066Z,27.5
2019-06-10T02:08:04.619Z,27.5
2019-06-10T02:13:17.934Z,27.4
2019-06-10T02:18:32.797Z,27.4
2019-06-10T02:23:43.792Z,27.4
2019-06-10T02:28:54.525Z,27.4
2019-06-10T02:34:05.275Z,27.4
2019-06-10T02:39:32.195Z,27.4
2019-06-10T02:44:49.442Z,27.5
2019-06-10T02:50:09.299Z,27.5
2019-06-10T02:55:34.906Z,27.4
2019-06-10T03:00:49.561Z,27.4
2019-06-10T03:06:00.255Z,27.4
2019-06-10T03:11:21.889Z,27.4
2019-06-10T03:16:43.060Z,27.4
2019-06-10T03:21:54.058Z,27.4
2019-06-10T03:27:05.621Z,27.4
2019-06-10T03:32:22.790Z,27.4
2019-06-10T03:37:47.041Z,27.4
2019-06-10T03:42:58.351Z,27.4
2019-06-10T03:48:10.291Z,27.4
2019-06-10T03:53:27.249Z,27.5
2019-06-10T03:58:39.407Z,27.5
2019-06-10T04:03:53.149Z,27.5
2019-06-10T04:09:04.130Z,27.5
2019-06-10T04:14:15.690Z,27.5
2019-06-10T04:19:29.036Z,27.5
2019-06-10T04:24:42.983Z,27.5
2019-06-10T04:29:54.667Z,27.4
2019-06-10T04:35:06.234Z,27.2
2019-06-10T04:40:18.964Z,27.1
2019-06-10T04:45:36.952Z,27
2019-06-10T04:50:48.484Z,27.1
2019-06-10T04:55:59.775Z,27.1
2019-06-10T05:01:12.413Z,27.1
2019-06-10T05:06:26.947Z,27.1
2019-06-10T05:11:47.880Z,27.1
2019-06-10T05:17:02.043Z,27.2
2019-06-10T05:22:13.714Z,27.2
2019-06-10T05:27:27.266Z,27.2
2019-06-10T05:32:39.738Z,27.2
2019-06-10T05:37:54.243Z,27.2
2019-06-10T05:43:05.807Z,27.2
2019-06-10T05:48:17.426Z,27.3
2019-06-10T05:53:30.907Z,27.3
2019-06-10T05:58:46.207Z,27.3
2019-06-10T06:03:57.497Z,27.4
2019-06-10T06:09:09.048Z,27.4
2019-06-10T06:14:23.122Z,27.4
2019-06-10T06:19:38.956Z,27.5
2019-06-10T06:24:52.750Z,27.5
2019-06-10T06:30:17.669Z,27.5
2019-06-10T06:35:38.991Z,27.5
2019-06-10T06:40:57.234Z,27.5
2019-06-10T06:46:08.822Z,27.5
2019-06-10T06:51:49.404Z,27.5
2019-06-10T06:57:09.803Z,27.6
2019-06-10T07:02:22.994Z,27.6
2019-06-10T07:07:37.098Z,27.6
2019-06-10T07:12:52.194Z,27.6
2019-06-10T07:18:03.554Z,27.6
2019-06-10T07:23:15.128Z,27.6
2019-06-10T07:28:46.704Z,27.6
2019-06-10T07:33:58.535Z,27.7
2019-06-10T07:39:10.085Z,27.7
2019-06-10T07:44:24.406Z,27.7
2019-06-10T07:49:37.532Z,27.7
2019-06-10T07:54:52.755Z,27.7
2019-06-10T08:00:03.962Z,27.7
2019-06-10T08:05:15.518Z,27.8
2019-06-10T08:10:29.735Z,27.8
2019-06-10T08:15:46.906Z,27.8
2019-06-10T08:20:59.782Z,27.8
2019-06-10T08:26:13.013Z,27.8
2019-06-10T08:31:24.681Z,27.8
2019-06-10T08:36:39.361Z,27.8
2019-06-10T08:41:55.219Z,27.9
2019-06-10T08:47:09.670Z,27.9
2019-06-10T08:52:24.332Z,27.9
2019-06-10T08:57:35.896Z,27.9
2019-06-10T09:02:54.104Z,27.9
2019-06-10T09:08:05.638Z,27.9
2019-06-10T09:13:22.242Z,27.9
2019-06-10T09:18:34.936Z,27.9
2019-06-10T09:23:59.565Z,27.9
2019-06-10T09:29:14.865Z,28
2019-06-10T09:34:26.161Z,28
2019-06-10T09:39:37.807Z,28
2019-06-10T09:44:55.344Z,28
2019-06-10T09:50:09.514Z,28
2019-06-10T09:55:23.874Z,28
2019-06-10T10:00:35.384Z,28
2019-06-10T10:06:15.246Z,28
2019-06-10T10:11:32.553Z,28
2019-06-10T10:16:54.822Z,28
2019-06-10T10:28:03.816Z,28
2019-06-10T10:33:39.513Z,28.1
2019-06-10T10:40:03.194Z,28
2019-06-10T10:45:15.107Z,28
2019-06-10T10:50:26.677Z,28
2019-06-10T10:55:37.965Z,28.1
2019-06-10T11:00:54.881Z,28.1
2019-06-10T11:06:08.718Z,28.1
2019-06-10T11:11:19.725Z,28.1
2019-06-10T11:16:33.427Z,28.1
2019-06-10T11:21:45.746Z,28.1
2019-06-10T11:26:58.402Z,28.1
2019-06-10T11:32:10.603Z,28.1
2019-06-10T11:37:23.411Z,28.1
2019-06-10T11:42:35.826Z,28.1
2019-06-10T11:47:56.609Z,28.1
2019-06-10T11:53:09.423Z,28.1
2019-06-10T11:58:23.828Z,28.1
2019-06-10T12:03:42.964Z,28.1
2019-06-10T12:09:03.336Z,28.1
2019-06-10T12:14:15.572Z,28.1
2019-06-10T12:19:27.157Z,28.1
2019-06-10T12:24:38.415Z,28.1
2019-06-10T12:29:52.972Z,28.1
2019-06-10T12:35:08.523Z,28.1
2019-06-10T12:40:19.809Z,28.1
2019-06-10T12:45:33.115Z,28.1
2019-06-10T12:50:44.620Z,28.1
2019-06-10T12:55:58.849Z,28.1
2019-06-10T13:01:12.049Z,28.1
2019-06-10T13:06:24.449Z,28.1
2019-06-10T13:11:35.995Z,28.2
2019-06-10T13:16:47.992Z,28.1
2019-06-10T13:21:59.724Z,28.2
2019-06-10T13:27:12.926Z,28.1
2019-06-10T13:32:24.231Z,28.2
2019-06-10T13:37:35.799Z,28.1
2019-06-10T13:42:47.358Z,28.1
2019-06-10T13:48:00.419Z,28.1
2019-06-10T13:53:18.862Z,28.1
2019-06-10T13:58:30.369Z,28.1
2019-06-10T14:03:44.364Z,28.2
2019-06-10T14:08:55.911Z,28.1
2019-06-10T14:14:09.455Z,28.1
2019-06-10T14:19:23.584Z,28.1
2019-06-10T14:24:34.575Z,28.2
2019-06-10T14:29:45.841Z,28.1
2019-06-10T14:34:56.852Z,28.1
2019-06-10T14:40:11.123Z,28
2019-06-10T14:45:32.834Z,28
2019-06-10T14:50:44.324Z,28
2019-06-10T14:55:55.913Z,27.9
2019-06-10T15:01:13.157Z,27.7
2019-06-10T15:06:35.464Z,27.8
2019-06-10T15:11:47.026Z,27.8
2019-06-10T15:16:58.652Z,27.8
2019-06-10T15:22:15.097Z,27.8
2019-06-10T15:27:33.983Z,27.8
2019-06-10T15:32:45.971Z,27.8
2019-06-10T15:37:57.543Z,27.8
2019-06-10T15:43:11.729Z,27.8
2019-06-10T15:48:25.738Z,27.8
2019-06-10T15:53:37.367Z,27.8
2019-06-10T15:58:57.752Z,27.8
2019-06-10T16:04:17.584Z,27.8
2019-06-10T16:09:32.688Z,27.8
2019-06-10T16:14:44.298Z,27.8
2019-06-10T16:25:26.879Z,27.8
2019-06-10T16:30:38.452Z,27.8
2019-06-10T16:35:49.757Z,27.8
2019-06-10T16:41:03.914Z,27.8
2019-06-10T16:46:16.574Z,27.8
2019-06-10T16:51:30.564Z,27.7
2019-06-10T16:56:43.803Z,27.7
2019-06-10T17:01:55.370Z,27.7
2019-06-10T17:07:06.923Z,27.8
2019-06-10T17:12:19.789Z,27.8
2019-06-10T17:17:33.045Z,27.8
2019-06-10T17:22:44.006Z,27.8
2019-06-10T17:27:55.614Z,27.8
2019-06-10T17:33:07.178Z,27.8
2019-06-10T17:38:18.731Z,27.8
2019-06-10T17:43:32.643Z,27.8
2019-06-10T17:48:45.713Z,27.8
2019-06-10T17:53:57.279Z,27.8
2019-06-10T18:00:19.457Z,27.8
2019-06-10T18:05:33.513Z,27.8
2019-06-10T18:10:45.119Z,27.8
2019-06-10T18:15:56.681Z,27.8
2019-06-10T18:21:12.788Z,27.8
2019-06-10T18:27:59.285Z,27.8
2019-06-10T18:33:38.512Z,27.8
2019-06-10T18:38:52.501Z,27.7
2019-06-10T18:44:23.139Z,27.8
2019-06-10T18:49:38.013Z,27.8
2019-06-10T18:54:49.662Z,27.8
2019-06-10T19:00:14.417Z,27.7
2019-06-10T19:05:25.469Z,27.8
2019-06-10T19:10:40.150Z,27.8
2019-06-10T19:15:54.450Z,27.8
2019-06-10T19:21:09.084Z,27.8
2019-06-10T19:26:22.549Z,27.8
2019-06-10T19:31:39.618Z,27.8
2019-06-10T19:36:57.295Z,27.8
2019-06-10T19:42:09.634Z,27.8
2019-06-10T19:47:23.357Z,27.8
2019-06-10T19:52:36.810Z,27.8
2019-06-10T19:57:47.563Z,27.8
2019-06-10T20:02:58.566Z,27.8
2019-06-10T20:08:12.616Z,27.8
2019-06-10T20:13:24.409Z,27.8
2019-06-10T20:18:36.175Z,27.8
2019-06-10T20:23:48.812Z,27.8
2019-06-10T20:29:00.085Z,27.8
2019-06-10T20:34:13.554Z,27.7
2019-06-10T20:39:25.459Z,27.8
2019-06-10T20:44:42.844Z,27.7
2019-06-10T20:49:57.051Z,27.7
2019-06-10T20:55:08.352Z,27.7
2019-06-10T21:00:26.465Z,27.7
2019-06-10T21:05:37.524Z,27.7
2019-06-10T21:10:54.535Z,27.7
2019-06-10T21:16:05.935Z,27.7
2019-06-10T21:21:16.945Z,27.7
2019-06-10T21:26:28.223Z,27.7
2019-06-10T21:31:41.546Z,27.7
2019-06-10T21:36:57.542Z,27.7
2019-06-10T21:42:08.548Z,27.7
2019-06-10T21:47:19.928Z,27.7
2019-06-10T21:52:34.268Z,27.7
2019-06-10T21:57:48.797Z,27.7
2019-06-10T22:03:02.385Z,27.7
2019-06-10T22:08:13.670Z,27.7
2019-06-10T22:13:25.105Z,27.8
2019-06-10T22:18:36.393Z,27.8
2019-06-10T22:23:48.675Z,27.8
2019-06-10T22:28:59.981Z,27.8
2019-06-10T22:34:12.852Z,27.9
2019-06-10T22:39:24.557Z,27.9
2019-06-10T22:44:36.073Z,27.9
2019-06-10T22:49:48.100Z,27.9
2019-06-10T22:55:03.772Z,27.9
2019-06-10T23:00:14.975Z,27.9
2019-06-10T23:05:26.766Z,27.9
2019-06-10T23:10:38.329Z,27.9
2019-06-10T23:15:51.259Z,28
2019-06-10T23:21:06.366Z,28
2019-06-10T23:26:17.653Z,27.9
2019-06-10T23:31:28.655Z,28
2019-06-10T23:36:39.667Z,28
2019-06-10T23:41:55.074Z,28
2019-06-10T23:47:09.158Z,27.9
2019-06-10T23:52:22.362Z,27.8
2019-06-10T23:57:33.925Z,27.8
